Time;durP1;ratioP1;P1;durP2;ratioP2;P2;SDS_P1;SDS_P2;PMS_P1;PMS_P2;Temp;Humidity;BMP_temperature;BMP_pressure;BME280_temperature;BME280_humidity;BME280_pressure;Samples;Min_cycle;Max_cycle;Signal;HPM_P1;HPM_P2
2023/01/31 00:00:33;;;;;;;29.89;24.39;;;;;;;2.20;68.18;100303.55;469116;113;922463;-71
2023/01/31 00:01:39;;;;;;;26.68;23.85;;;;;;;2.20;67.97;100316.15;469065;113;922652;-71
2023/01/31 00:02:42;;;;;;;29.76;23.46;;;;;;;2.19;68.04;100304.55;468932;113;922608;-71
2023/01/31 00:03:47;;;;;;;28.61;24.14;;;;;;;2.19;68.01;100309.08;469111;113;922974;-71
2023/01/31 00:04:50;;;;;;;31.26;24.11;;;;;;;2.19;68.04;100303.70;468904;113;922595;-71
2023/01/31 00:05:53;;;;;;;28.01;22.78;;;;;;;2.21;68.15;100305.20;469113;113;922640;-70
2023/01/31 00:06:56;;;;;;;29.03;23.68;;;;;;;2.22;68.11;100312.27;466886;113;922484;-71
2023/01/31 00:08:00;;;;;;;27.82;22.89;;;;;;;2.21;68.00;100305.20;462375;114;922678;-69
2023/01/31 00:09:04;;;;;;;28.44;23.42;;;;;;;2.23;68.05;100310.42;461394;114;922537;-71
2023/01/31 00:10:09;;;;;;;26.05;22.56;;;;;;;2.23;67.98;100308.58;461826;114;922538;-71
2023/01/31 00:11:12;;;;;;;30.56;23.83;;;;;;;2.24;67.96;100312.11;462275;114;922628;-71
2023/01/31 00:12:15;;;;;;;28.21;22.87;;;;;;;2.24;67.98;100309.42;462313;114;922437;-71
2023/01/31 00:13:18;;;;;;;30.34;23.19;;;;;;;2.26;68.07;100312.79;462276;114;930363;-70
2023/01/31 00:14:21;;;;;;;27.15;23.42;;;;;;;2.27;68.10;100307.22;462405;114;923141;-71
2023/01/31 00:15:25;;;;;;;24.96;21.89;;;;;;;2.27;67.99;100315.29;461892;114;922611;-70
2023/01/31 00:16:28;;;;;;;27.49;23.11;;;;;;;2.29;67.99;100315.13;462343;114;922536;-70
2023/01/31 00:17:31;;;;;;;30.80;23.93;;;;;;;2.29;68.02;100315.98;461468;114;923205;-70
2023/01/31 00:18:34;;;;;;;28.84;23.00;;;;;;;2.31;67.95;100315.81;461894;114;922771;-71
2023/01/31 00:19:37;;;;;;;25.91;22.99;;;;;;;2.31;68.00;100307.75;462436;114;922448;-71
2023/01/31 00:20:41;;;;;;;23.75;21.26;;;;;;;2.33;68.07;100311.09;461031;114;922523;-70
2023/01/31 00:21:44;;;;;;;25.54;22.71;;;;;;;2.33;67.95;100316.47;460878;115;922540;-72
2023/01/31 00:22:47;;;;;;;28.24;22.29;;;;;;;2.34;67.88;100302.86;461055;113;922508;-70
2023/01/31 00:23:52;;;;;;;25.49;22.58;;;;;;;2.34;67.92;100297.48;460980;115;922499;-70
2023/01/31 00:24:55;;;;;;;25.95;22.71;;;;;;;2.36;67.89;100308.08;460732;115;922665;-71
2023/01/31 00:26:13;;;;;;;25.28;22.14;;;;;;;2.35;67.86;100301.85;460844;114;922760;-71
2023/01/31 00:27:16;;;;;;;25.60;21.73;;;;;;;2.36;67.72;100306.23;457448;116;922630;-71
2023/01/31 00:28:20;;;;;;;24.83;22.08;;;;;;;2.35;67.66;100301.85;457801;115;922473;-71
2023/01/31 00:29:25;;;;;;;25.84;21.44;;;;;;;2.34;67.45;100312.77;457435;116;922615;-71
2023/01/31 00:30:29;;;;;;;23.64;20.76;;;;;;;2.33;67.42;100303.02;459121;114;922613;-71
2023/01/31 00:31:33;;;;;;;25.96;22.24;;;;;;;2.31;67.41;100308.59;459564;115;922599;-71
2023/01/31 00:32:37;;;;;;;24.26;20.45;;;;;;;2.30;67.31;100306.06;458905;114;923092;-70
2023/01/31 00:33:42;;;;;;;23.25;20.33;;;;;;;2.30;67.35;100306.06;460794;114;922513;-71
2023/01/31 00:34:45;;;;;;;23.46;20.87;;;;;;;2.28;67.36;100303.53;460722;115;922450;-70
2023/01/31 00:35:48;;;;;;;23.18;20.77;;;;;;;2.27;67.38;100307.22;460955;114;922592;-71
2023/01/31 00:36:51;;;;;;;25.78;20.83;;;;;;;2.28;67.41;100295.45;462374;114;922643;-71
2023/01/31 00:37:54;;;;;;;23.73;21.32;;;;;;;2.30;67.48;100300.68;461759;114;922826;-71
2023/01/31 00:38:59;;;;;;;23.22;20.62;;;;;;;2.31;67.41;100294.30;460894;115;922471;-70
2023/01/31 00:40:03;;;;;;;22.59;20.34;;;;;;;2.32;67.48;100296.80;460659;115;922418;-71
2023/01/31 00:41:06;;;;;;;23.04;20.74;;;;;;;2.34;67.46;100297.48;460842;115;922985;-71
2023/01/31 00:42:09;;;;;;;22.24;19.86;;;;;;;2.34;67.49;100293.94;460844;113;922503;-71
2023/01/31 00:43:12;;;;;;;24.76;19.67;;;;;;;2.36;67.55;100292.78;460881;114;922628;-71
2023/01/31 00:44:16;;;;;;;24.00;20.30;;;;;;;2.37;67.48;100288.24;460781;115;922597;-69
2023/01/31 00:45:19;;;;;;;21.99;19.68;;;;;;;2.38;67.31;100292.59;459491;115;922662;-71
2023/01/31 00:46:22;;;;;;;23.50;19.61;;;;;;;2.39;67.29;100291.59;457551;116;922914;-71
2023/01/31 00:47:25;;;;;;;20.92;18.87;;;;;;;2.39;67.19;100286.20;459440;115;922630;-71
2023/01/31 00:48:29;;;;;;;21.89;19.46;;;;;;;2.40;67.18;100282.51;463875;114;922961;-71
2023/01/31 00:49:32;;;;;;;22.97;20.34;;;;;;;2.40;67.27;100282.51;465435;114;922636;-73
2023/01/31 00:50:35;;;;;;;21.20;19.05;;;;;;;2.41;67.20;100284.20;462941;114;922489;-71
2023/01/31 00:51:38;;;;;;;22.28;19.84;;;;;;;2.40;67.17;100280.66;463786;114;922548;-70
2023/01/31 00:52:41;;;;;;;21.66;19.41;;;;;;;2.41;67.12;100281.50;464680;114;922472;-71
2023/01/31 00:53:45;;;;;;;21.96;19.73;;;;;;;2.41;67.15;100281.50;461730;114;922527;-72
2023/01/31 00:54:48;;;;;;;23.71;19.89;;;;;;;2.41;67.18;100285.04;462901;114;922772;-70
2023/01/31 00:55:53;;;;;;;21.11;19.07;;;;;;;2.42;67.08;100281.34;458510;112;930402;-71
2023/01/31 00:56:57;;;;;;;23.42;19.81;;;;;;;2.43;67.09;100277.62;459593;114;923073;-71
2023/01/31 00:58:00;;;;;;;22.70;20.31;;;;;;;2.43;67.08;100280.31;462159;114;922600;-70
2023/01/31 00:59:07;;;;;;;21.82;19.76;;;;;;;2.44;67.04;100278.45;462006;114;922684;-71
2023/01/31 01:00:10;;;;;;;23.41;21.01;;;;;;;2.46;67.17;100279.14;461904;114;922472;-71
2023/01/31 01:01:20;;;;;;;22.15;19.79;;;;;;;2.48;67.05;100285.20;461584;114;922555;-70
2023/01/31 01:02:23;;;;;;;22.31;19.75;;;;;;;2.47;67.01;100283.52;460136;115;922502;-71
2023/01/31 01:03:26;;;;;;;22.11;19.91;;;;;;;2.47;66.83;100283.52;463330;114;930515;-71
2023/01/31 01:04:29;;;;;;;24.44;21.33;;;;;;;2.47;66.81;100291.59;465539;114;922807;-71
2023/01/31 01:05:34;;;;;;;22.85;20.22;;;;;;;2.45;66.73;100283.68;461672;115;922816;-70
2023/01/31 01:06:40;;;;;;;25.17;20.99;;;;;;;2.45;66.63;100288.22;461548;115;922525;-72
2023/01/31 01:07:43;;;;;;;23.77;21.19;;;;;;;2.43;66.66;100284.84;461543;115;923141;-71
2023/01/31 01:08:46;;;;;;;26.31;21.09;;;;;;;2.42;66.61;100293.95;462453;114;922549;-69
2023/01/31 01:09:53;;;;;;;24.88;20.94;;;;;;;2.41;66.43;100292.27;465324;114;922522;-71
2023/01/31 01:10:58;;;;;;;27.65;22.75;;;;;;;2.40;66.50;100293.27;465273;114;930191;-71
2023/01/31 01:12:01;;;;;;;23.69;21.06;;;;;;;2.39;66.43;100286.20;464908;114;922858;-71
2023/01/31 01:13:04;;;;;;;23.48;21.14;;;;;;;2.37;66.26;100290.94;465482;114;922375;-72
2023/01/31 01:14:08;;;;;;;29.60;21.30;;;;;;;2.35;66.24;100290.25;465541;114;922628;-71
2023/01/31 01:15:11;;;;;;;26.57;21.88;;;;;;;2.34;66.31;100286.72;465567;114;922435;-71
2023/01/31 01:16:18;;;;;;;25.66;21.81;;;;;;;2.33;66.28;100286.88;465463;114;922646;-70
2023/01/31 01:17:21;;;;;;;27.68;22.59;;;;;;;2.31;66.25;100286.22;465318;113;922474;-72
2023/01/31 01:18:24;;;;;;;23.11;20.58;;;;;;;2.30;66.26;100287.23;465483;114;922551;-70
2023/01/31 01:19:27;;;;;;;24.84;20.81;;;;;;;2.28;66.30;100290.08;465521;114;922597;-71
2023/01/31 01:20:30;;;;;;;23.62;21.01;;;;;;;2.27;66.26;100293.77;465028;114;922544;-71
2023/01/31 01:21:40;;;;;;;23.31;20.50;;;;;;;2.25;66.30;100285.05;465345;114;922552;-69
2023/01/31 01:22:43;;;;;;;22.93;20.56;;;;;;;2.26;66.25;100280.52;465282;113;922493;-69
2023/01/31 01:23:46;;;;;;;23.09;20.24;;;;;;;2.25;66.31;100278.83;465472;114;922470;-70
2023/01/31 01:24:49;;;;;;;24.29;21.62;;;;;;;2.24;66.42;100294.13;462761;114;922463;-71
2023/01/31 01:25:52;;;;;;;24.21;21.05;;;;;;;2.24;66.45;100291.44;457378;116;931127;-71
2023/01/31 01:26:57;;;;;;;24.06;21.11;;;;;;;2.24;66.44;100296.81;460099;114;922465;-71
2023/01/31 01:28:00;;;;;;;23.26;20.87;;;;;;;2.25;66.49;100294.97;464958;114;922530;-71
2023/01/31 01:29:03;;;;;;;25.31;21.26;;;;;;;2.26;66.65;100289.39;465730;114;922486;-70
2023/01/31 01:30:08;;;;;;;24.54;21.28;;;;;;;2.28;66.64;100289.23;465470;114;922856;-70
2023/01/31 01:31:13;;;;;;;25.70;20.89;;;;;;;2.28;66.57;100283.85;465379;114;922563;-70
2023/01/31 01:32:16;;;;;;;25.24;21.79;;;;;;;2.29;66.71;100291.77;465505;113;922499;-69
2023/01/31 01:33:19;;;;;;;24.25;21.73;;;;;;;2.31;66.64;100284.37;465116;114;922845;-70
2023/01/31 01:34:22;;;;;;;26.59;21.91;;;;;;;2.31;66.70;100281.69;465544;114;922802;-71
2023/01/31 01:35:25;;;;;;;25.64;21.52;;;;;;;2.32;66.50;100283.34;465532;114;923431;-71
2023/01/31 01:36:30;;;;;;;26.94;22.38;;;;;;;2.32;66.42;100282.50;464856;114;922513;-71
2023/01/31 01:37:34;;;;;;;25.20;22.22;;;;;;;2.31;66.36;100283.53;461674;114;922718;-70
2023/01/31 01:38:37;;;;;;;24.57;21.08;;;;;;;2.29;66.44;100281.00;461736;114;922458;-72
2023/01/31 01:39:40;;;;;;;24.99;22.26;;;;;;;2.30;66.36;100282.69;462273;114;922480;-71
2023/01/31 01:40:45;;;;;;;24.02;21.22;;;;;;;2.29;66.39;100285.55;465261;114;922599;-70
2023/01/31 01:41:50;;;;;;;23.76;20.64;;;;;;;2.29;66.56;100293.61;465306;114;922933;-71
2023/01/31 01:42:53;;;;;;;24.81;21.52;;;;;;;2.29;66.49;100291.77;465291;114;922637;-71
2023/01/31 01:43:58;;;;;;;27.70;22.17;;;;;;;2.30;66.69;100288.07;465450;114;922604;-71
2023/01/31 01:45:04;;;;;;;24.01;20.74;;;;;;;2.31;66.69;100291.61;464006;114;930218;-71
2023/01/31 01:46:09;;;;;;;22.58;20.23;;;;;;;2.32;66.59;100282.50;461533;115;922597;-70
2023/01/31 01:47:31;;;;;;;23.06;20.71;;;;;;;2.32;66.45;100291.41;464779;114;923031;-71
2023/01/31 01:48:36;;;;;;;23.28;20.80;;;;;;;2.33;66.37;100293.10;465338;114;922710;-71
2023/01/31 01:49:39;;;;;;;23.76;20.15;;;;;;;2.32;66.33;100290.57;463361;114;922556;-70
2023/01/31 01:50:46;;;;;;;24.52;21.56;;;;;;;2.31;66.37;100284.37;461803;114;922464;-71
2023/01/31 01:51:52;;;;;;;24.06;21.08;;;;;;;2.31;66.51;100284.37;458161;114;922863;-70
2023/01/31 01:53:02;;;;;;;22.39;20.08;;;;;;;2.32;66.44;100283.34;458807;114;922636;-70
2023/01/31 01:54:08;;;;;;;22.98;19.82;;;;;;;2.32;66.48;100280.66;458203;114;922928;-71
2023/01/31 01:55:21;;;;;;;22.16;19.23;;;;;;;2.34;66.44;100281.34;460790;113;922515;-70
2023/01/31 01:56:28;;;;;;;21.56;19.22;;;;;;;2.34;66.37;100281.34;447953;118;922650;-71
2023/01/31 01:57:35;;;;;;;24.52;20.23;;;;;;;2.33;66.34;100285.03;457190;116;922501;-71
2023/01/31 01:58:42;;;;;;;22.70;20.17;;;;;;;2.31;66.19;100279.00;459112;114;922808;-70
2023/01/31 01:59:51;;;;;;;20.42;18.39;;;;;;;2.30;66.21;100279.16;455627;116;922584;-71
2023/01/31 02:00:55;;;;;;;21.42;19.37;;;;;;;2.29;66.27;100281.00;461489;114;922545;-71
2023/01/31 02:01:58;;;;;;;20.08;18.03;;;;;;;2.28;66.25;100279.31;461763;114;922638;-71
2023/01/31 02:03:05;;;;;;;22.24;18.85;;;;;;;2.28;66.18;100275.78;461816;113;922536;-71
2023/01/31 02:04:12;;;;;;;20.98;18.67;;;;;;;2.27;66.04;100285.70;462202;114;930425;-71
2023/01/31 02:05:18;;;;;;;20.15;18.22;;;;;;;2.26;66.06;100275.94;464824;114;922589;-71
2023/01/31 02:06:22;;;;;;;20.26;18.16;;;;;;;2.25;66.12;100273.45;463106;114;922593;-70
2023/01/31 02:07:25;;;;;;;20.53;18.57;;;;;;;2.25;65.93;100281.52;465423;114;922614;-70
2023/01/31 02:08:33;;;;;;;20.12;18.11;;;;;;;2.23;65.97;100288.90;463979;114;930455;-71
2023/01/31 02:09:51;;;;;;;19.96;18.03;;;;;;;2.21;65.91;100280.99;465344;114;922555;-70
2023/01/31 02:11:13;;;;;;;22.65;19.04;;;;;;;2.19;65.80;100284.87;465099;114;922454;-71
2023/01/31 02:12:16;;;;;;;20.09;18.14;;;;;;;2.17;65.63;100286.88;464102;113;922557;-71
2023/01/31 02:13:21;;;;;;;20.12;18.04;;;;;;;2.13;65.73;100285.55;457343;114;922875;-70
2023/01/31 02:14:25;;;;;;;20.52;18.44;;;;;;;2.09;65.76;100280.48;464487;114;922582;-71
2023/01/31 02:15:31;;;;;;;20.22;18.01;;;;;;;2.08;65.69;100283.36;461596;114;923085;-71
2023/01/31 02:16:34;;;;;;;21.50;19.21;;;;;;;2.07;65.77;100293.28;461576;115;923425;-71
2023/01/31 02:17:38;;;;;;;19.84;17.86;;;;;;;2.07;65.90;100277.14;461570;114;922910;-71
2023/01/31 02:18:43;;;;;;;20.80;18.59;;;;;;;2.08;65.96;100281.52;461729;115;922515;-71
2023/01/31 02:19:55;;;;;;;19.69;17.89;;;;;;;2.10;66.00;100281.33;461589;115;923112;-70
2023/01/31 02:21:25;;;;;;;19.48;17.60;;;;;;;2.10;66.07;100276.80;461270;114;922545;-70
2023/01/31 02:22:37;;;;;;;19.72;17.78;;;;;;;2.11;65.95;100288.39;465301;113;922572;-71
2023/01/31 02:24:01;;;;;;;22.48;18.49;;;;;;;2.10;65.98;100286.70;465581;113;922719;-71
2023/01/31 02:25:24;;;;;;;20.74;18.55;;;;;;;2.09;65.91;100282.36;464199;114;923069;-70
2023/01/31 02:26:54;;;;;;;20.69;18.42;;;;;;;2.08;65.94;100289.59;465309;114;923125;-70
2023/01/31 02:28:13;;;;;;;22.52;20.21;;;;;;;2.06;65.91;100282.68;465288;114;922549;-70
2023/01/31 02:29:29;;;;;;;23.11;20.53;;;;;;;2.04;65.90;100284.72;464308;114;922536;-70
2023/01/31 02:30:52;;;;;;;23.42;21.03;;;;;;;2.03;65.99;100286.56;462369;114;922847;-70
2023/01/31 02:31:59;;;;;;;22.63;20.23;;;;;;;2.00;65.98;100286.88;462776;114;922681;-70
2023/01/31 02:33:15;;;;;;;22.72;20.58;;;;;;;1.98;65.94;100275.47;464139;113;922535;-71
2023/01/31 02:34:40;;;;;;;21.69;19.50;;;;;;;1.98;65.93;100282.69;455220;116;922794;-71
2023/01/31 02:35:59;;;;;;;22.13;19.81;;;;;;;1.95;65.94;100281.16;458904;114;923047;-71
2023/01/31 02:37:06;;;;;;;20.40;18.23;;;;;;;1.95;65.94;100277.63;458493;114;922481;-70
2023/01/31 02:38:31;;;;;;;23.12;20.51;;;;;;;1.94;65.93;100281.32;461758;114;922500;-70
2023/01/31 02:39:49;;;;;;;22.22;19.86;;;;;;;1.93;66.02;100272.41;462256;114;922534;-70
2023/01/31 02:41:02;;;;;;;20.76;18.58;;;;;;;1.92;65.99;100278.82;456644;116;922544;-71
2023/01/31 02:42:09;;;;;;;22.52;20.23;;;;;;;1.93;66.14;100279.66;464194;114;922977;-69
2023/01/31 02:43:25;;;;;;;23.08;20.58;;;;;;;1.93;66.22;100277.78;465352;114;922545;-71
2023/01/31 02:46:09;;;;;;;21.23;19.27;;;;;;;1.94;66.13;100279.47;465036;114;922581;-71
2023/01/31 02:47:18;;;;;;;22.08;19.51;;;;;;;1.93;66.12;100274.28;464436;114;922543;-71
2023/01/31 02:48:26;;;;;;;21.82;19.51;;;;;;;1.92;66.07;100280.66;463113;113;923027;-71
2023/01/31 02:49:41;;;;;;;22.10;19.96;;;;;;;1.92;66.14;100281.52;463543;113;922848;-71
2023/01/31 02:50:58;;;;;;;22.40;20.17;;;;;;;1.91;66.13;100277.13;463296;114;922650;-71
2023/01/31 02:52:15;;;;;;;20.14;18.24;;;;;;;1.92;66.07;100286.05;454926;116;922655;-71
2023/01/31 02:53:22;;;;;;;19.49;17.62;;;;;;;1.92;66.15;100289.58;456316;114;922824;-71
2023/01/31 02:56:13;;;;;;;22.08;19.88;;;;;;;1.94;66.28;100290.23;454832;116;922558;-73
2023/01/31 02:56:56;;;;;;;20.05;17.86;;;;;;;1.97;66.24;100284.53;457200;114;922494;-71
2023/01/31 02:58:02;;;;;;;20.14;18.23;;;;;;;1.99;66.27;100284.34;463695;114;922875;-72
2023/01/31 02:59:14;;;;;;;20.38;18.52;;;;;;;2.00;66.39;100286.03;461301;114;922594;-71
2023/01/31 03:00:20;;;;;;;21.32;19.13;;;;;;;2.02;66.35;100286.72;455893;116;922565;-69
2023/01/31 03:01:29;;;;;;;20.65;18.62;;;;;;;2.03;66.21;100288.41;456890;114;923419;-71
2023/01/31 03:02:32;;;;;;;20.24;18.26;;;;;;;2.04;66.27;100287.41;456109;116;922855;-70
2023/01/31 03:03:37;;;;;;;20.33;18.39;;;;;;;2.05;66.12;100283.68;456791;115;923012;-71
2023/01/31 03:04:41;;;;;;;20.26;18.26;;;;;;;2.05;66.09;100286.37;458284;115;930504;-71
2023/01/31 03:06:05;;;;;;;19.30;17.40;;;;;;;2.07;66.22;100287.90;458366;115;922592;-72
2023/01/31 03:07:14;;;;;;;20.04;17.81;;;;;;;2.08;66.12;100283.36;458272;115;922503;-71
2023/01/31 03:08:21;;;;;;;19.85;17.92;;;;;;;2.09;66.07;100287.73;448715;116;923110;-71
2023/01/31 03:09:35;;;;;;;19.37;17.52;;;;;;;2.09;66.06;100283.17;447918;116;922813;-71
2023/01/31 03:10:59;;;;;;;18.79;17.07;;;;;;;2.09;66.06;100291.23;457726;115;922533;-70
2023/01/31 03:12:13;;;;;;;19.50;17.68;;;;;;;2.10;65.93;100278.64;457708;115;922519;-71
2023/01/31 03:13:48;;;;;;;20.68;18.80;;;;;;;2.20;66.10;100276.65;477167;110;946935;-70
2023/01/31 03:15:12;;;;;;;18.77;16.95;;;;;;;2.08;65.94;100281.52;464910;113;922486;-71
2023/01/31 03:18:07;;;;;;;21.74;19.42;;;;;;;2.06;66.06;100269.23;462538;114;923202;-72
2023/01/31 03:19:23;;;;;;;20.66;18.56;;;;;;;2.05;65.93;100275.61;463322;114;922983;-71
2023/01/31 03:20:36;;;;;;;19.58;17.70;;;;;;;2.03;65.97;100275.80;463242;114;922483;-70
2023/01/31 03:21:58;;;;;;;19.68;17.87;;;;;;;2.03;66.13;100275.80;460331;114;922619;-71
2023/01/31 03:23:05;;;;;;;21.08;18.18;;;;;;;2.03;66.24;100278.50;457453;114;922642;-71
2023/01/31 03:24:08;;;;;;;20.16;18.36;;;;;;;2.04;66.10;100279.34;457254;115;922643;-71
2023/01/31 03:25:14;;;;;;;20.41;18.49;;;;;;;2.04;66.28;100280.15;457886;114;922426;-71
2023/01/31 03:26:19;;;;;;;20.64;18.57;;;;;;;2.05;66.23;100281.84;454890;116;930602;-71
2023/01/31 03:27:24;;;;;;;19.40;17.49;;;;;;;2.07;66.20;100282.52;449872;115;922702;-71
2023/01/31 03:28:31;;;;;;;20.27;18.31;;;;;;;2.07;66.11;100282.52;458147;115;922663;-71
2023/01/31 03:29:37;;;;;;;21.07;18.94;;;;;;;2.08;65.99;100277.98;458683;114;922967;-71
2023/01/31 03:30:47;;;;;;;20.57;18.65;;;;;;;2.08;66.04;100277.98;454269;115;923879;-70
2023/01/31 03:31:57;;;;;;;20.53;18.64;;;;;;;2.09;66.09;100275.11;455510;114;922587;-71
2023/01/31 03:33:04;;;;;;;19.73;18.02;;;;;;;2.10;65.98;100268.72;463441;114;923023;-71
2023/01/31 03:34:10;;;;;;;18.96;17.21;;;;;;;2.10;65.93;100274.10;463271;113;922474;-71
2023/01/31 03:35:14;;;;;;;18.55;16.84;;;;;;;2.12;65.93;100268.56;461446;114;923190;-71
2023/01/31 03:36:30;;;;;;;19.95;18.12;;;;;;;2.13;65.99;100266.72;461650;114;923579;-71
2023/01/31 03:37:38;;;;;;;20.14;18.10;;;;;;;2.13;65.91;100264.03;462191;114;922937;-71
2023/01/31 03:38:50;;;;;;;20.77;18.17;;;;;;;2.14;65.89;100273.78;462729;114;922598;-70
2023/01/31 03:40:11;;;;;;;19.69;17.77;;;;;;;2.12;65.99;100262.34;461901;114;922496;-71
2023/01/31 03:41:18;;;;;;;19.18;17.35;;;;;;;2.15;66.03;100267.41;454461;116;923099;-71
2023/01/31 03:42:40;;;;;;;20.18;17.63;;;;;;;2.14;65.93;100266.56;446555;116;922629;-72
2023/01/31 03:43:53;;;;;;;19.34;17.54;;;;;;;2.14;65.89;100263.87;457312;114;922701;-71
2023/01/31 03:45:00;;;;;;;20.00;18.01;;;;;;;2.14;65.82;100265.72;463377;114;922501;-70
2023/01/31 03:46:12;;;;;;;21.54;19.51;;;;;;;2.12;65.79;100268.56;458455;113;922523;-71
2023/01/31 03:47:28;;;;;;;20.07;18.08;;;;;;;2.13;65.81;100266.72;460965;114;922466;-71
2023/01/31 03:48:35;;;;;;;19.73;17.79;;;;;;;2.12;65.66;100263.19;462562;114;922617;-71
2023/01/31 03:49:41;;;;;;;18.90;17.21;;;;;;;2.10;65.74;100265.19;462663;114;922942;-70
2023/01/31 03:50:53;;;;;;;18.62;16.73;;;;;;;2.10;65.72;100263.34;462480;114;922582;-70
2023/01/31 03:52:06;;;;;;;20.69;18.60;;;;;;;2.09;65.68;100266.23;461226;115;922587;-72
2023/01/31 03:53:19;;;;;;;20.12;18.31;;;;;;;2.10;65.73;100265.19;461199;115;922487;-72
2023/01/31 03:54:31;;;;;;;20.64;18.52;;;;;;;2.11;65.64;100261.50;461303;113;922548;-70
2023/01/31 03:55:53;;;;;;;19.98;18.16;;;;;;;2.12;65.74;100265.03;463570;114;922666;-70
2023/01/31 03:57:09;;;;;;;20.13;18.08;;;;;;;2.12;65.78;100265.03;465423;113;923465;-70
2023/01/31 03:58:23;;;;;;;19.08;17.36;;;;;;;2.25;65.95;100268.91;493804;107;922464;-72
2023/01/31 03:59:30;;;;;;;20.59;18.52;;;;;;;2.15;65.94;100268.22;484129;109;922488;-71
2023/01/31 04:00:37;;;;;;;20.69;18.48;;;;;;;2.14;65.79;100269.25;484098;109;922495;-71
2023/01/31 04:01:47;;;;;;;19.29;17.44;;;;;;;2.15;65.75;100270.09;479722;109;922890;-71
2023/01/31 04:02:54;;;;;;;20.37;18.43;;;;;;;2.15;65.79;100268.22;468864;110;922603;-70
2023/01/31 04:04:04;;;;;;;20.03;18.26;;;;;;;2.15;65.75;100264.72;469465;113;923502;-71
2023/01/31 04:05:13;;;;;;;19.45;17.56;;;;;;;2.14;65.70;100276.48;457715;116;923098;-71
2023/01/31 04:06:17;;;;;;;20.99;18.67;;;;;;;2.14;65.66;100263.03;452242;117;923083;-71
2023/01/31 04:07:21;;;;;;;21.10;19.09;;;;;;;2.14;65.52;100268.41;452212;117;930553;-71
2023/01/31 04:08:24;;;;;;;20.57;18.69;;;;;;;2.12;65.71;100281.17;454531;116;922505;-71
2023/01/31 04:09:33;;;;;;;20.76;18.67;;;;;;;2.12;65.58;100265.03;462324;114;930508;-70
2023/01/31 04:10:36;;;;;;;19.64;17.82;;;;;;;2.12;65.65;100273.94;454936;116;922499;-72
2023/01/31 04:11:41;;;;;;;20.54;18.61;;;;;;;2.12;65.59;100265.88;462933;114;922440;-71
2023/01/31 04:12:45;;;;;;;20.97;19.08;;;;;;;2.13;65.66;100270.25;462821;114;922516;-71
2023/01/31 04:13:48;;;;;;;20.09;18.19;;;;;;;2.13;65.53;100264.88;462807;114;922553;-71
2023/01/31 04:14:51;;;;;;;20.89;18.96;;;;;;;2.12;65.50;100268.56;462937;114;922534;-71
2023/01/31 04:15:54;;;;;;;20.66;18.68;;;;;;;2.13;65.57;100274.78;463043;114;922469;-72
2023/01/31 04:16:57;;;;;;;21.23;19.16;;;;;;;2.13;65.65;100275.63;462965;114;922965;-71
2023/01/31 04:18:00;;;;;;;20.05;17.64;;;;;;;2.15;65.76;100267.41;462987;114;922606;-71
2023/01/31 04:19:04;;;;;;;20.34;18.49;;;;;;;2.17;65.78;100270.74;463007;114;922479;-71
2023/01/31 04:20:09;;;;;;;21.54;19.49;;;;;;;2.18;65.75;100262.52;464092;111;922638;-71
2023/01/31 04:21:14;;;;;;;20.23;18.38;;;;;;;2.19;65.67;100271.42;472832;111;930465;-71
2023/01/31 04:22:17;;;;;;;21.74;18.81;;;;;;;2.18;65.50;100267.89;463387;111;922432;-71
2023/01/31 04:23:20;;;;;;;21.68;19.60;;;;;;;2.18;65.52;100272.43;466308;113;922405;-71
2023/01/31 04:24:23;;;;;;;21.30;18.99;;;;;;;2.18;65.35;100267.05;463685;111;922712;-71
2023/01/31 04:25:26;;;;;;;20.66;18.77;;;;;;;2.15;65.33;100260.15;458177;116;922484;-71
2023/01/31 04:26:29;;;;;;;20.39;18.40;;;;;;;2.14;65.19;100274.63;460219;114;922880;-71
2023/01/31 04:27:32;;;;;;;21.69;19.72;;;;;;;2.13;65.30;100269.41;461561;114;922696;-70
2023/01/31 04:28:35;;;;;;;21.07;19.07;;;;;;;2.12;65.24;100265.88;458545;114;922604;-71
2023/01/31 04:29:39;;;;;;;20.48;18.57;;;;;;;2.12;65.37;100273.94;463706;111;930476;-71
2023/01/31 04:30:43;;;;;;;21.20;19.15;;;;;;;2.12;65.29;100275.79;460728;114;922436;-71
2023/01/31 04:31:46;;;;;;;21.12;19.23;;;;;;;2.13;65.44;100275.63;458158;116;923031;-71
2023/01/31 04:32:49;;;;;;;21.69;18.87;;;;;;;2.13;65.45;100277.47;458032;116;922582;-71
2023/01/31 04:33:52;;;;;;;22.19;19.93;;;;;;;2.12;65.47;100273.94;465513;111;922588;-71
2023/01/31 04:34:55;;;;;;;21.07;19.21;;;;;;;2.13;65.28;100274.78;473850;111;922943;-71
2023/01/31 04:35:58;;;;;;;20.81;18.81;;;;;;;2.11;65.31;100277.64;474736;111;922495;-71
2023/01/31 04:37:01;;;;;;;20.90;18.88;;;;;;;2.12;65.40;100286.55;467354;111;923026;-70
2023/01/31 04:38:04;;;;;;;20.62;18.77;;;;;;;2.11;65.37;100288.39;464502;114;923029;-70
2023/01/31 04:39:09;;;;;;;20.93;18.96;;;;;;;2.10;65.29;100284.86;464459;111;922533;-71
2023/01/31 04:40:13;;;;;;;21.25;19.21;;;;;;;2.10;65.27;100286.70;470238;111;922424;-71
2023/01/31 04:41:16;;;;;;;22.06;19.86;;;;;;;2.09;65.29;100287.73;462777;114;922759;-71
2023/01/31 04:42:19;;;;;;;21.04;18.89;;;;;;;2.09;65.25;100295.80;462254;114;922623;-71
2023/01/31 04:43:22;;;;;;;20.91;18.93;;;;;;;2.09;65.36;100293.12;458089;115;922532;-70
2023/01/31 04:44:25;;;;;;;21.76;19.57;;;;;;;2.08;65.28;100292.27;459264;111;922514;-74
2023/01/31 04:45:28;;;;;;;21.65;19.56;;;;;;;2.09;65.24;100296.62;458150;116;923568;-72
2023/01/31 04:46:32;;;;;;;21.98;19.77;;;;;;;2.09;65.26;100290.43;458152;116;922495;-70
2023/01/31 04:47:35;;;;;;;21.01;19.03;;;;;;;2.08;65.31;100288.74;458084;116;922723;-73
2023/01/31 04:48:40;;;;;;;21.04;18.93;;;;;;;2.08;65.15;100288.74;458168;116;922496;-72
2023/01/31 04:49:43;;;;;;;21.21;19.15;;;;;;;2.06;65.29;100291.59;458566;111;922488;-71
2023/01/31 04:50:46;;;;;;;21.68;19.54;;;;;;;2.06;65.39;100290.75;459760;111;922552;-75
2023/01/31 04:51:50;;;;;;;20.96;19.00;;;;;;;2.06;65.31;100286.21;463958;111;922434;-71
2023/01/31 04:52:53;;;;;;;19.46;17.62;;;;;;;2.06;65.45;100293.44;453545;115;922500;-72
2023/01/31 04:53:55;;;;;;;21.27;19.12;;;;;;;2.07;65.60;100298.66;452730;117;922547;-73
2023/01/31 04:54:59;;;;;;;20.62;18.83;;;;;;;2.10;65.71;100297.46;456268;115;922491;-72
2023/01/31 04:56:02;;;;;;;21.24;19.11;;;;;;;2.12;65.70;100297.30;452832;115;922556;-73
2023/01/31 04:57:05;;;;;;;20.88;18.98;;;;;;;2.15;65.65;100296.98;452709;116;922541;-72
2023/01/31 04:58:09;;;;;;;20.64;18.68;;;;;;;2.14;65.54;100293.45;453080;116;922847;-70
2023/01/31 04:59:12;;;;;;;21.18;19.07;;;;;;;2.14;65.58;100300.68;456853;116;922562;-72
2023/01/31 05:00:16;;;;;;;20.93;19.01;;;;;;;2.14;65.57;100295.30;458061;113;930516;-73
2023/01/31 05:01:19;;;;;;;21.66;19.14;;;;;;;2.14;65.53;100298.83;454142;115;922491;-72
2023/01/31 05:02:22;;;;;;;20.85;18.95;;;;;;;2.12;65.56;100300.84;453138;115;922591;-72
2023/01/31 05:03:25;;;;;;;22.13;19.60;;;;;;;2.12;65.65;100295.46;452895;116;922576;-71
2023/01/31 05:04:28;;;;;;;20.73;18.91;;;;;;;2.15;65.58;100299.67;456795;116;923216;-71
2023/01/31 05:05:32;;;;;;;23.76;20.46;;;;;;;2.16;65.49;100304.02;455635;116;922521;-71
2023/01/31 05:06:37;;;;;;;22.56;20.27;;;;;;;2.16;65.53;100298.64;457990;115;923057;-72
2023/01/31 05:07:41;;;;;;;23.52;20.56;;;;;;;2.15;65.40;100299.67;458894;114;923028;-71
2023/01/31 05:08:44;;;;;;;22.26;20.04;;;;;;;2.15;65.43;100296.98;460480;115;922480;-71